Gatchel, Indiana
Current Conditions -  °F | °C
As of 2:15 AM on Monday 22 Dec 2014 (Local Time) from KHNB Reporting Station
Overcast Overcast  
Wind Chill: 29°   Ceiling: 3700
Heat Index: 36°   Visibility: 10mi
Dew Point: 28°   Wind: 8mph
Humidity: 75%   Direction: 120°ESE
Pressure: 29.99"   Gusts: NA
Location:  38.0217°N, 86.7099°W
Report Text: KHNB 220815Z AUTO 12007KT 10SM BKN037 BKN042 OVC100 02/M02 A2999 RMK AO1
Loading
Personal Weather Stations






























Interactive Weather Map New forecast layout! Learn more

10-Day Weather Forecast

Advertisements
Track Severe Weather on mobile